createdAt,value
2023-02-28T00:00:50.521Z,13.30
2023-02-28T00:03:17.122Z,13.05
2023-02-28T00:05:43.774Z,12.86
2023-02-28T00:08:10.610Z,13.65
2023-02-28T00:10:37.121Z,12.79
2023-02-28T00:13:06.827Z,12.91
2023-02-28T00:15:34.225Z,12.82
2023-02-28T00:18:01.194Z,13.24
2023-02-28T00:20:27.717Z,13.08
2023-02-28T00:22:54.601Z,12.94
2023-02-28T00:25:24.700Z,12.95
2023-02-28T00:27:52.118Z,12.99
2023-02-28T00:30:20.818Z,13.32
2023-02-28T00:32:48.318Z,13.17
2023-02-28T00:35:15.046Z,13.03
2023-02-28T00:37:41.543Z,13.31
2023-02-28T00:40:08.821Z,13.09
2023-02-28T00:42:35.913Z,12.98
2023-02-28T00:45:03.434Z,13.58
2023-02-28T00:47:30.238Z,13.38
2023-02-28T00:49:56.905Z,13.16
2023-02-28T00:52:23.400Z,13.53
2023-02-28T00:54:49.915Z,13.29
2023-02-28T00:57:16.383Z,13.48
2023-02-28T00:59:42.846Z,13.29
2023-02-28T01:02:09.349Z,13.52
2023-02-28T01:04:36.081Z,13.75
2023-02-28T01:07:02.763Z,13.46
2023-02-28T01:09:29.637Z,13.70
2023-02-28T01:11:56.201Z,13.69
2023-02-28T01:14:22.972Z,13.56
2023-02-28T01:16:49.453Z,13.69
2023-02-28T01:19:16.582Z,13.52
2023-02-28T01:21:43.052Z,13.83
2023-02-28T01:24:09.681Z,14.15
2023-02-28T01:26:36.790Z,13.90
2023-02-28T01:29:03.986Z,13.82
2023-02-28T01:31:30.899Z,13.81
2023-02-28T01:33:57.535Z,14.07
2023-02-28T01:36:25.708Z,13.98
2023-02-28T01:38:52.960Z,14.06
2023-02-28T01:41:25.628Z,14.26
2023-02-28T01:44:08.143Z,13.99
2023-02-28T01:46:37.368Z,13.96
2023-02-28T01:49:17.827Z,14.12
2023-02-28T01:51:54.986Z,14.07
2023-02-28T01:54:26.664Z,13.94
2023-02-28T01:57:02.641Z,13.89
2023-02-28T01:59:40.921Z,13.71
2023-02-28T02:02:08.135Z,13.48
2023-02-28T02:05:15.469Z,13.73
2023-02-28T02:07:45.847Z,13.80
2023-02-28T02:10:21.286Z,14.03
2023-02-28T02:12:57.822Z,14.45
2023-02-28T02:15:54.873Z,13.93
2023-02-28T02:18:53.977Z,13.96
2023-02-28T02:22:02.738Z,14.02
2023-02-28T02:24:37.889Z,13.83
2023-02-28T02:27:07.208Z,14.08
2023-02-28T02:30:03.202Z,14.08
2023-02-28T02:32:56.019Z,13.71
2023-02-28T02:35:46.800Z,13.80
2023-02-28T02:38:49.002Z,14.16
2023-02-28T02:41:30.463Z,13.95
2023-02-28T02:44:07.298Z,13.98
2023-02-28T02:46:39.106Z,13.87
2023-02-28T02:49:12.265Z,14.36
2023-02-28T02:51:41.490Z,14.03
2023-02-28T02:54:29.190Z,14.29
2023-02-28T02:57:02.438Z,14.00
2023-02-28T02:59:31.193Z,14.48
2023-02-28T03:02:03.774Z,14.16
2023-02-28T03:04:39.412Z,14.46
2023-02-28T03:07:05.969Z,14.48
2023-02-28T03:09:35.035Z,14.78
2023-02-28T03:12:02.324Z,14.83
2023-02-28T03:14:47.084Z,14.62
2023-02-28T03:17:54.405Z,14.42
2023-02-28T03:20:39.119Z,14.51
2023-02-28T03:23:20.541Z,14.58
2023-02-28T03:25:56.760Z,14.87
2023-02-28T03:28:38.419Z,15.01
2023-02-28T03:31:15.019Z,14.92
2023-02-28T03:34:24.596Z,14.77
2023-02-28T03:37:06.595Z,15.03
2023-02-28T03:39:48.745Z,14.99
2023-02-28T03:42:32.504Z,14.85
2023-02-28T03:45:04.772Z,14.79
2023-02-28T03:47:42.728Z,15.33
2023-02-28T03:50:18.787Z,15.28
2023-02-28T03:53:00.300Z,14.74
2023-02-28T03:55:38.564Z,14.48
2023-02-28T03:58:27.841Z,15.03
2023-02-28T04:01:06.754Z,14.71
2023-02-28T04:03:33.334Z,14.96
2023-02-28T04:06:19.699Z,14.95
2023-02-28T04:08:51.153Z,15.14
2023-02-28T04:11:17.628Z,15.51
2023-02-28T04:13:45.601Z,15.31
2023-02-28T04:16:24.514Z,15.34
2023-02-28T04:19:01.842Z,15.14
2023-02-28T04:21:34.313Z,16.06
2023-02-28T04:24:00.978Z,15.67
2023-02-28T04:26:36.224Z,15.08
2023-02-28T04:29:05.258Z,15.46
2023-02-28T04:31:32.788Z,15.32
2023-02-28T04:34:00.534Z,15.51
2023-02-28T04:36:29.728Z,15.52
2023-02-28T04:38:57.118Z,15.57
2023-02-28T04:41:24.120Z,15.70
2023-02-28T04:43:52.708Z,15.79
2023-02-28T04:46:19.881Z,15.90
2023-02-28T04:48:46.404Z,15.89
2023-02-28T04:51:16.120Z,16.27
2023-02-28T04:53:43.806Z,15.93
2023-02-28T04:56:14.537Z,15.68
2023-02-28T04:58:41.421Z,15.35
2023-02-28T05:01:27.584Z,15.43
2023-02-28T05:03:57.133Z,15.64
2023-02-28T05:06:28.752Z,15.63
2023-02-28T05:08:55.688Z,15.57
2023-02-28T05:11:29.021Z,15.67
2023-02-28T05:13:56.346Z,16.14
2023-02-28T05:16:22.883Z,16.14
2023-02-28T05:18:49.490Z,15.85
2023-02-28T05:21:30.350Z,16.13
2023-02-28T05:23:59.604Z,15.86
2023-02-28T05:26:27.609Z,15.62
2023-02-28T05:28:54.757Z,16.03
2023-02-28T05:31:21.537Z,16.11
2023-02-28T05:33:48.057Z,15.93
2023-02-28T05:36:14.636Z,15.95
2023-02-28T05:38:42.934Z,16.00
2023-02-28T05:41:11.406Z,16.39
2023-02-28T05:43:38.666Z,16.02
2023-02-28T05:46:17.263Z,15.79
2023-02-28T05:48:48.282Z,15.82
2023-02-28T05:51:18.610Z,16.71
2023-02-28T05:53:45.290Z,16.40
2023-02-28T05:56:11.802Z,16.46
2023-02-28T05:58:38.442Z,16.07
2023-02-28T06:01:24.856Z,16.56
2023-02-28T06:03:51.398Z,16.30
2023-02-28T06:06:18.293Z,16.44
2023-02-28T06:08:47.607Z,16.30
2023-02-28T06:11:14.591Z,16.72
2023-02-28T06:13:41.265Z,17.13
2023-02-28T06:16:11.200Z,17.08
2023-02-28T06:18:37.809Z,16.86
2023-02-28T06:21:04.860Z,16.94
2023-02-28T06:23:31.362Z,16.81
2023-02-28T06:25:57.908Z,17.04
2023-02-28T06:28:26.043Z,16.77
2023-02-28T06:30:53.311Z,17.27
2023-02-28T06:33:19.866Z,17.56
2023-02-28T06:35:50.576Z,17.28
2023-02-28T06:38:17.541Z,17.86
2023-02-28T06:40:44.015Z,17.70
2023-02-28T06:43:10.809Z,18.11
2023-02-28T06:45:37.340Z,19.13
2023-02-28T06:48:06.225Z,17.80
2023-02-28T06:50:32.708Z,16.68
2023-02-28T06:53:01.850Z,17.43
2023-02-28T06:55:30.433Z,17.19
2023-02-28T06:57:58.201Z,16.56
2023-02-28T07:00:25.235Z,16.95
2023-02-28T07:02:51.725Z,17.78
2023-02-28T07:05:18.276Z,17.58
2023-02-28T07:07:44.766Z,17.45
2023-02-28T07:10:13.093Z,17.63
2023-02-28T07:12:40.150Z,18.32
2023-02-28T07:15:07.273Z,17.69
2023-02-28T07:17:33.761Z,17.68
2023-02-28T07:20:00.364Z,18.28
2023-02-28T07:22:26.861Z,18.11
2023-02-28T07:24:53.398Z,17.33
2023-02-28T07:27:19.949Z,17.79
2023-02-28T07:29:46.570Z,18.16
2023-02-28T07:32:13.092Z,18.50
2023-02-28T07:34:39.683Z,18.45
2023-02-28T07:37:06.315Z,18.78
2023-02-28T07:39:32.796Z,18.94
2023-02-28T07:41:59.326Z,18.36
2023-02-28T07:44:26.316Z,18.90
2023-02-28T07:46:52.910Z,18.32
2023-02-28T07:49:19.648Z,19.21
2023-02-28T07:51:46.180Z,19.83
2023-02-28T07:54:12.660Z,18.91
2023-02-28T07:56:39.199Z,18.33
2023-02-28T07:59:05.695Z,18.18
2023-02-28T08:01:32.659Z,18.59
2023-02-28T08:03:59.391Z,17.70
2023-02-28T08:06:26.242Z,17.80
2023-02-28T08:08:54.323Z,18.02
2023-02-28T08:11:20.907Z,18.63
2023-02-28T08:13:47.509Z,18.61
2023-02-28T08:16:15.304Z,17.75
2023-02-28T08:18:41.942Z,17.56
2023-02-28T08:21:10.531Z,17.93
2023-02-28T08:23:37.974Z,17.64
2023-02-28T08:26:05.194Z,17.70
2023-02-28T08:28:32.485Z,18.87
2023-02-28T08:30:59.084Z,19.82
2023-02-28T08:33:26.410Z,19.94
2023-02-28T08:35:54.684Z,18.52
2023-02-28T08:38:21.740Z,19.17
2023-02-28T08:40:48.276Z,18.41
2023-02-28T08:43:14.809Z,18.62
2023-02-28T08:45:41.310Z,19.45
2023-02-28T08:48:07.880Z,20.64
2023-02-28T08:50:37.233Z,19.24
2023-02-28T08:53:03.946Z,19.31
2023-02-28T08:55:30.599Z,19.20
2023-02-28T08:57:57.108Z,19.07
2023-02-28T09:00:23.860Z,19.10
2023-02-28T09:02:50.407Z,20.60
2023-02-28T09:05:16.962Z,20.03
2023-02-28T09:07:43.451Z,19.50
2023-02-28T09:10:10.945Z,19.60
2023-02-28T09:12:37.523Z,18.91
2023-02-28T09:15:04.931Z,18.93
2023-02-28T09:17:31.461Z,19.18
2023-02-28T09:19:58.524Z,19.22
2023-02-28T09:22:25.327Z,19.76
2023-02-28T09:24:51.822Z,19.05
2023-02-28T09:27:18.269Z,19.12
2023-02-28T09:29:44.762Z,18.64
2023-02-28T09:32:11.518Z,19.85
2023-02-28T09:34:38.638Z,18.34
2023-02-28T09:37:05.696Z,18.56
2023-02-28T09:39:32.294Z,18.47
2023-02-28T09:41:59.341Z,18.81
2023-02-28T09:44:45.349Z,18.64
2023-02-28T09:47:36.558Z,18.80
2023-02-28T09:50:29.240Z,18.75
2023-02-28T09:52:56.802Z,18.92
2023-02-28T09:55:47.069Z,18.62
2023-02-28T09:58:35.042Z,19.26
2023-02-28T10:01:30.263Z,18.53
2023-02-28T10:04:13.624Z,18.05
2023-02-28T10:06:49.765Z,18.15
2023-02-28T10:09:25.204Z,18.12
2023-02-28T10:11:56.173Z,19.07
2023-02-28T10:14:29.086Z,18.97
2023-02-28T10:17:20.836Z,18.88
2023-02-28T10:20:13.668Z,18.62
2023-02-28T10:23:01.392Z,19.61
2023-02-28T10:25:30.460Z,19.49
2023-02-28T10:28:10.861Z,19.80
2023-02-28T10:30:50.943Z,21.62
2023-02-28T10:33:23.992Z,20.11
2023-02-28T10:35:52.132Z,20.89
2023-02-28T10:38:26.589Z,19.67
2023-02-28T10:41:05.711Z,22.19
2023-02-28T10:43:32.306Z,20.82
2023-02-28T10:46:12.139Z,19.88
2023-02-28T10:48:47.047Z,19.61
2023-02-28T10:51:16.701Z,19.19
2023-02-28T10:54:03.349Z,19.38
2023-02-28T10:56:31.741Z,19.49
2023-02-28T10:59:28.115Z,20.25
2023-02-28T11:01:54.730Z,20.58
2023-02-28T11:04:30.623Z,19.92
2023-02-28T11:07:00.945Z,20.09
2023-02-28T11:09:33.348Z,19.72
2023-02-28T11:12:01.708Z,20.15
2023-02-28T11:14:40.501Z,20.96
2023-02-28T11:17:20.475Z,21.15
2023-02-28T11:19:51.996Z,20.41
2023-02-28T11:22:27.897Z,20.01
2023-02-28T11:24:59.756Z,19.76
2023-02-28T11:27:32.491Z,20.25
2023-02-28T11:30:00.675Z,20.47
2023-02-28T11:32:30.371Z,20.27
2023-02-28T11:35:05.196Z,20.14
2023-02-28T11:37:33.571Z,19.96
2023-02-28T11:40:00.188Z,20.40
2023-02-28T11:42:52.251Z,20.58
2023-02-28T11:45:42.445Z,19.81
2023-02-28T11:48:28.632Z,19.96
2023-02-28T11:51:21.917Z,20.17
2023-02-28T11:53:54.331Z,20.47
2023-02-28T11:56:20.768Z,21.05
2023-02-28T11:59:26.318Z,21.58
2023-02-28T12:01:55.786Z,20.05
2023-02-28T12:04:50.362Z,20.34
2023-02-28T12:07:23.097Z,20.06
2023-02-28T12:10:29.113Z,19.91
2023-02-28T12:13:07.459Z,21.16
2023-02-28T12:15:55.597Z,21.74
2023-02-28T12:18:35.717Z,20.68
2023-02-28T12:21:16.678Z,20.31
2023-02-28T12:24:13.489Z,20.90
2023-02-28T12:26:46.466Z,20.50
2023-02-28T12:29:28.092Z,21.03
2023-02-28T12:32:02.786Z,21.33
2023-02-28T12:34:56.388Z,20.79
2023-02-28T12:37:31.601Z,20.29
2023-02-28T12:40:05.754Z,21.01
2023-02-28T12:42:43.615Z,21.03
2023-02-28T12:45:26.709Z,20.93
2023-02-28T12:48:08.874Z,21.14
2023-02-28T12:50:36.722Z,20.89
2023-02-28T12:53:23.588Z,20.73
2023-02-28T12:56:09.041Z,20.89
2023-02-28T12:59:02.371Z,20.50
2023-02-28T13:02:13.585Z,20.74
2023-02-28T13:05:01.629Z,20.54
2023-02-28T13:08:12.276Z,21.00
2023-02-28T13:10:57.132Z,21.26
2023-02-28T13:13:26.829Z,20.33
2023-02-28T13:16:02.993Z,21.13
2023-02-28T13:18:45.862Z,20.49
2023-02-28T13:21:29.521Z,19.74
2023-02-28T13:23:56.203Z,19.85
2023-02-28T13:26:24.109Z,20.37
2023-02-28T13:28:53.619Z,20.22
2023-02-28T13:31:20.397Z,19.86
2023-02-28T13:33:49.748Z,19.63
2023-02-28T13:36:19.554Z,21.95
2023-02-28T13:38:47.248Z,19.98
2023-02-28T13:41:29.268Z,19.67
2023-02-28T13:44:06.946Z,20.76
2023-02-28T13:46:37.791Z,20.64
2023-02-28T13:49:23.022Z,20.49
2023-02-28T13:52:15.775Z,20.91
2023-02-28T13:55:19.289Z,20.57
2023-02-28T13:57:57.611Z,19.71
2023-02-28T14:00:39.282Z,19.57
2023-02-28T14:03:30.564Z,20.55
2023-02-28T14:06:33.161Z,20.19
2023-02-28T14:09:02.992Z,20.06
2023-02-28T14:11:33.584Z,20.46
2023-02-28T14:14:01.362Z,20.45
2023-02-28T14:16:46.222Z,21.23
2023-02-28T14:19:21.185Z,20.05
2023-02-28T14:21:59.445Z,21.10
2023-02-28T14:24:57.007Z,20.28
2023-02-28T14:27:29.516Z,20.60
2023-02-28T14:30:31.178Z,20.85
2023-02-28T14:33:20.208Z,21.31
2023-02-28T14:36:08.272Z,21.96
2023-02-28T14:38:45.987Z,21.96
2023-02-28T14:41:36.045Z,21.46
2023-02-28T14:44:04.643Z,22.19
2023-02-28T14:46:38.876Z,21.90
2023-02-28T14:49:07.979Z,21.27
2023-02-28T14:51:34.517Z,20.45
2023-02-28T14:54:04.408Z,20.73
2023-02-28T14:56:38.007Z,20.68
2023-02-28T14:59:06.616Z,20.96
2023-02-28T15:01:33.298Z,21.03
2023-02-28T15:04:03.401Z,20.53
2023-02-28T15:06:30.924Z,20.72
2023-02-28T15:09:12.357Z,21.14
2023-02-28T15:11:40.668Z,20.61
2023-02-28T15:14:08.252Z,21.06
2023-02-28T15:16:39.921Z,20.44
2023-02-28T15:19:18.224Z,21.31
2023-02-28T15:21:51.892Z,21.92
2023-02-28T15:24:44.398Z,21.42
2023-02-28T15:27:22.868Z,22.17
2023-02-28T15:30:14.404Z,22.91
2023-02-28T15:32:41.178Z,22.72
2023-02-28T15:35:30.521Z,22.68
2023-02-28T15:38:19.430Z,22.14
2023-02-28T15:40:51.767Z,22.29
2023-02-28T15:43:25.277Z,21.95
2023-02-28T15:45:57.832Z,21.82
2023-02-28T15:48:46.100Z,21.99
2023-02-28T15:51:12.521Z,21.36
2023-02-28T15:53:51.038Z,21.51
2023-02-28T15:56:39.614Z,21.00
2023-02-28T15:59:13.744Z,21.16
2023-02-28T16:01:40.740Z,21.17
2023-02-28T16:04:17.603Z,21.51
2023-02-28T16:06:46.273Z,21.27
2023-02-28T16:09:17.438Z,20.82
2023-02-28T16:11:49.784Z,20.37
2023-02-28T16:14:22.754Z,20.71
2023-02-28T16:16:55.778Z,20.81
2023-02-28T16:19:24.126Z,20.44
2023-02-28T16:21:51.028Z,20.02
2023-02-28T16:24:17.604Z,20.46
2023-02-28T16:26:48.316Z,20.99
2023-02-28T16:29:25.772Z,21.32
2023-02-28T16:31:53.018Z,20.76
2023-02-28T16:34:19.702Z,21.07
2023-02-28T16:36:49.972Z,20.94
2023-02-28T16:39:16.802Z,21.59
2023-02-28T16:41:45.899Z,21.67
2023-02-28T16:44:28.970Z,21.74
2023-02-28T16:46:55.528Z,20.91
2023-02-28T16:49:21.978Z,20.45
2023-02-28T16:51:48.598Z,21.53
2023-02-28T16:54:15.106Z,20.70
2023-02-28T16:56:46.085Z,20.59
2023-02-28T16:59:14.111Z,20.68
2023-02-28T17:01:40.619Z,20.30
2023-02-28T17:04:07.230Z,20.90
2023-02-28T17:06:33.753Z,20.50
2023-02-28T17:09:00.287Z,20.93
2023-02-28T17:11:26.960Z,21.15
2023-02-28T17:13:53.454Z,21.59
2023-02-28T17:16:32.058Z,21.46
2023-02-28T17:19:07.617Z,20.99
2023-02-28T17:21:34.866Z,21.00
2023-02-28T17:24:01.478Z,20.76
2023-02-28T17:26:28.503Z,21.07
2023-02-28T17:28:57.396Z,21.36
2023-02-28T17:31:29.487Z,21.76
2023-02-28T17:33:56.022Z,21.19
2023-02-28T17:36:25.609Z,21.26
2023-02-28T17:38:53.292Z,20.99
2023-02-28T17:41:19.857Z,21.71
2023-02-28T17:43:46.364Z,21.52
2023-02-28T17:46:19.322Z,21.07
2023-02-28T17:48:45.896Z,21.24
2023-02-28T17:51:16.653Z,21.42
2023-02-28T17:53:43.704Z,22.17
2023-02-28T17:56:14.138Z,21.22
2023-02-28T17:58:40.685Z,22.17
2023-02-28T18:01:07.356Z,21.86
2023-02-28T18:03:34.254Z,21.56
2023-02-28T18:06:02.941Z,22.36
2023-02-28T18:08:29.664Z,22.95
2023-02-28T18:10:56.192Z,22.65
2023-02-28T18:13:22.847Z,22.63
2023-02-28T18:15:49.388Z,21.83
2023-02-28T18:18:15.970Z,22.91
2023-02-28T18:20:43.417Z,22.43
2023-02-28T18:23:09.984Z,22.73
2023-02-28T18:25:36.558Z,22.61
2023-02-28T18:28:03.220Z,23.51
2023-02-28T18:30:32.784Z,23.48
2023-02-28T18:33:01.311Z,23.21
2023-02-28T18:35:29.820Z,23.46
2023-02-28T18:37:56.345Z,23.47
2023-02-28T18:40:22.882Z,23.49
2023-02-28T18:42:49.388Z,22.36
2023-02-28T18:45:15.901Z,23.68
2023-02-28T18:47:42.582Z,24.41
2023-02-28T18:50:09.874Z,24.30
2023-02-28T18:52:36.526Z,24.88
2023-02-28T18:55:03.019Z,25.07
2023-02-28T18:57:29.548Z,24.86
2023-02-28T18:59:56.061Z,25.59
2023-02-28T19:02:22.550Z,25.62
2023-02-28T19:04:49.101Z,26.34
2023-02-28T19:07:17.887Z,26.21
2023-02-28T19:09:44.502Z,26.62
2023-02-28T19:12:11.022Z,26.60
2023-02-28T19:14:37.585Z,26.55
2023-02-28T19:17:04.230Z,26.81
2023-02-28T19:19:30.794Z,25.86
2023-02-28T19:21:57.369Z,26.51
2023-02-28T19:24:23.882Z,26.45
2023-02-28T19:26:50.357Z,26.34
2023-02-28T19:29:16.864Z,26.79
2023-02-28T19:31:43.483Z,26.14
2023-02-28T19:34:09.989Z,27.24
2023-02-28T19:36:36.492Z,28.22
2023-02-28T19:39:03.537Z,28.22
2023-02-28T19:41:30.258Z,27.94
2023-02-28T19:43:56.919Z,28.13
2023-02-28T19:46:23.484Z,28.10
2023-02-28T19:48:53.651Z,28.20
2023-02-28T19:51:20.597Z,28.87
2023-02-28T19:53:47.125Z,29.23
2023-02-28T19:56:13.612Z,28.42
2023-02-28T19:58:40.431Z,28.19
2023-02-28T20:01:08.959Z,27.74
2023-02-28T20:03:35.550Z,29.25
2023-02-28T20:06:05.891Z,29.07
2023-02-28T20:08:32.692Z,29.52
2023-02-28T20:11:08.551Z,28.86
2023-02-28T20:13:35.393Z,29.04
2023-02-28T20:16:03.870Z,29.07
2023-02-28T20:18:30.323Z,28.98
2023-02-28T20:20:56.835Z,29.32
2023-02-28T20:23:26.643Z,29.86
2023-02-28T20:25:53.725Z,29.58
2023-02-28T20:28:21.084Z,29.33
2023-02-28T20:30:47.810Z,29.39
2023-02-28T20:33:19.062Z,29.75
2023-02-28T20:35:46.034Z,29.19
2023-02-28T20:38:12.525Z,29.82
2023-02-28T20:40:39.030Z,29.59
2023-02-28T20:43:05.773Z,29.89
2023-02-28T20:45:32.274Z,31.54
2023-02-28T20:47:58.787Z,31.24
2023-02-28T20:50:25.339Z,30.55
2023-02-28T20:52:52.157Z,31.13
2023-02-28T20:55:18.825Z,30.75
2023-02-28T20:57:45.329Z,30.85
2023-02-28T21:00:21.211Z,30.85
2023-02-28T21:02:47.823Z,30.24
2023-02-28T21:05:14.468Z,30.58
2023-02-28T21:07:41.109Z,30.83
2023-02-28T21:10:09.491Z,30.76
2023-02-28T21:12:36.194Z,31.14
2023-02-28T21:15:02.816Z,30.55
2023-02-28T21:17:29.524Z,30.31
2023-02-28T21:19:56.041Z,31.03
2023-02-28T21:22:22.508Z,31.85
2023-02-28T21:24:48.998Z,30.85
2023-02-28T21:27:15.501Z,31.53
2023-02-28T21:29:42.101Z,31.68
2023-02-28T21:32:08.716Z,31.13
2023-02-28T21:34:35.262Z,31.41
2023-02-28T21:37:01.770Z,31.90
2023-02-28T21:39:28.393Z,31.31
2023-02-28T21:41:54.946Z,31.90
2023-02-28T21:44:21.462Z,31.94
2023-02-28T21:46:51.690Z,32.67
2023-02-28T21:49:18.671Z,31.84
2023-02-28T21:51:45.293Z,31.45
2023-02-28T21:54:12.168Z,31.21
2023-02-28T21:56:38.963Z,32.03
2023-02-28T21:59:05.868Z,31.85
2023-02-28T22:01:36.325Z,32.42
2023-02-28T22:04:05.878Z,32.78
2023-02-28T22:06:35.277Z,32.00
2023-02-28T22:09:05.675Z,31.69
2023-02-28T22:11:34.386Z,32.90
2023-02-28T22:14:01.141Z,32.35
2023-02-28T22:16:37.913Z,32.43
2023-02-28T22:19:16.854Z,33.49
2023-02-28T22:21:43.359Z,33.59
2023-02-28T22:24:13.745Z,33.22
2023-02-28T22:26:40.231Z,33.30
2023-02-28T22:29:07.481Z,33.53
2023-02-28T22:31:35.888Z,33.74
2023-02-28T22:34:07.828Z,33.63
2023-02-28T22:36:34.730Z,33.41
2023-02-28T22:39:01.966Z,33.48
2023-02-28T22:41:29.085Z,32.87
2023-02-28T22:44:02.082Z,32.82
2023-02-28T22:46:31.473Z,32.01
2023-02-28T22:48:59.801Z,31.79
2023-02-28T22:51:27.699Z,32.76
2023-02-28T22:53:56.074Z,32.93
2023-02-28T22:56:25.409Z,32.32
2023-02-28T22:58:54.498Z,32.13
2023-02-28T23:01:24.110Z,32.19
2023-02-28T23:03:51.772Z,32.64
2023-02-28T23:06:20.550Z,32.81
2023-02-28T23:08:47.693Z,31.60
2023-02-28T23:11:23.234Z,31.65
2023-02-28T23:13:50.314Z,33.12
2023-02-28T23:16:18.400Z,33.28
2023-02-28T23:18:45.203Z,32.57
2023-02-28T23:21:11.771Z,31.65
2023-02-28T23:26:26.359Z,32.29
2023-02-28T23:28:52.856Z,32.36
2023-02-28T23:31:22.710Z,32.42
2023-02-28T23:33:49.362Z,33.03
2023-02-28T23:36:32.829Z,32.79
2023-02-28T23:39:07.647Z,32.88
2023-02-28T23:41:34.178Z,32.57
2023-02-28T23:44:02.797Z,32.32
2023-02-28T23:46:30.087Z,33.31
2023-02-28T23:48:59.264Z,33.00
2023-02-28T23:51:28.926Z,33.41
2023-02-28T23:53:55.392Z,32.72
2023-02-28T23:56:25.977Z,33.60
2023-02-28T23:59:04.648Z,32.91
